createdAt,value
2017-07-02T00:02:20.149Z,98.40
2017-07-02T00:04:47.754Z,98.30
2017-07-02T00:07:15.371Z,98.30
2017-07-02T00:09:42.968Z,98.20
2017-07-02T00:12:10.571Z,97.90
2017-07-02T00:14:38.147Z,98.30
2017-07-02T00:17:05.702Z,98.30
2017-07-02T00:19:34.847Z,98.90
2017-07-02T00:22:02.673Z,99.50
2017-07-02T00:24:30.243Z,99.10
2017-07-02T00:26:57.843Z,98.80
2017-07-02T00:29:25.417Z,98.50
2017-07-02T00:31:52.971Z,98.60
2017-07-02T00:34:20.676Z,98.40
2017-07-02T00:36:48.242Z,98.80
2017-07-02T00:39:15.844Z,98.60
2017-07-02T00:41:44.191Z,99.00
2017-07-02T00:44:11.754Z,99.00
2017-07-02T00:46:39.404Z,99.20
2017-07-02T00:49:06.961Z,99.20
2017-07-02T00:51:34.678Z,99.70
2017-07-02T00:54:02.282Z,99.90
2017-07-02T00:56:29.855Z,99.90
2017-07-02T00:58:57.468Z,99.90
2017-07-02T01:01:25.057Z,99.90
2017-07-02T01:03:52.635Z,99.90
2017-07-02T01:06:20.202Z,99.90
2017-07-02T01:08:47.817Z,99.90
2017-07-02T01:11:15.395Z,99.90
2017-07-02T01:13:43.007Z,99.90
2017-07-02T01:16:10.593Z,99.90
2017-07-02T01:18:38.930Z,99.90
2017-07-02T01:21:06.518Z,99.90
2017-07-02T01:23:34.988Z,99.90
2017-07-02T01:26:02.575Z,99.90
2017-07-02T01:28:30.937Z,99.90
2017-07-02T01:30:58.490Z,99.90
2017-07-02T01:33:26.099Z,99.90
2017-07-02T01:35:53.774Z,99.90
2017-07-02T01:38:21.353Z,99.90
2017-07-02T01:40:48.938Z,99.90
2017-07-02T01:43:16.523Z,99.90
2017-07-02T01:45:44.855Z,99.90
2017-07-02T01:48:12.430Z,99.90
2017-07-02T01:50:40.026Z,99.90
2017-07-02T01:53:08.418Z,99.90
2017-07-02T01:55:35.972Z,99.90
2017-07-02T01:58:04.323Z,99.90
2017-07-02T02:03:42.883Z,99.90
2017-07-02T02:06:11.226Z,99.90
2017-07-02T02:08:38.794Z,99.90
2017-07-02T02:11:06.474Z,99.90
2017-07-02T02:13:34.034Z,99.90
2017-07-02T02:16:01.626Z,99.90
2017-07-02T02:18:29.983Z,99.90
2017-07-02T02:20:57.543Z,99.90
2017-07-02T02:23:25.120Z,99.90
2017-07-02T02:25:53.458Z,99.90
2017-07-02T02:28:21.034Z,99.90
2017-07-02T02:30:48.603Z,99.90
2017-07-02T02:33:16.171Z,99.90
2017-07-02T02:35:43.747Z,99.90
2017-07-02T02:38:11.373Z,99.90
2017-07-02T02:40:38.941Z,99.90
2017-07-02T02:43:06.526Z,99.90
2017-07-02T02:45:34.873Z,99.90
2017-07-02T02:48:02.422Z,99.90
2017-07-02T02:50:30.030Z,99.90
2017-07-02T02:52:58.367Z,99.90
2017-07-02T02:55:25.922Z,99.90
2017-07-02T02:57:53.611Z,99.90
2017-07-02T03:00:21.186Z,99.90
2017-07-02T03:02:48.751Z,99.90
2017-07-02T03:05:16.372Z,99.90
2017-07-02T03:07:44.030Z,99.90
2017-07-02T03:10:11.678Z,99.90
2017-07-02T03:12:39.241Z,99.90
2017-07-02T03:15:06.821Z,99.90
2017-07-02T03:17:34.423Z,99.90
2017-07-02T03:20:01.980Z,99.90
2017-07-02T03:22:29.564Z,99.90
2017-07-02T03:24:57.902Z,99.90
2017-07-02T03:27:25.476Z,99.90
2017-07-02T03:29:53.069Z,99.90
2017-07-02T03:32:21.397Z,99.90
2017-07-02T03:34:48.974Z,99.90
2017-07-02T03:37:16.565Z,99.90
2017-07-02T03:39:44.919Z,99.90
2017-07-02T03:42:12.485Z,99.90
2017-07-02T03:44:40.047Z,99.90
2017-07-02T03:47:07.974Z,99.90
2017-07-02T03:49:35.806Z,99.90
2017-07-02T03:52:04.146Z,99.90
2017-07-02T03:54:31.739Z,99.90
2017-07-02T03:56:59.318Z,99.90
2017-07-02T03:59:26.942Z,99.90
2017-07-02T04:01:54.515Z,99.90
2017-07-02T04:04:22.083Z,99.90
2017-07-02T04:06:49.668Z,99.90
2017-07-02T04:09:17.461Z,99.90
2017-07-02T04:11:45.020Z,99.90
2017-07-02T04:14:12.587Z,99.90
2017-07-02T04:16:40.168Z,99.90
2017-07-02T04:19:07.729Z,99.90
2017-07-02T04:21:35.321Z,99.90
2017-07-02T04:24:02.882Z,99.90
2017-07-02T04:26:30.465Z,99.90
2017-07-02T04:28:58.783Z,99.90
2017-07-02T04:31:26.344Z,99.90
2017-07-02T04:33:54.186Z,99.90
2017-07-02T04:36:21.867Z,99.90
2017-07-02T04:38:49.527Z,99.90
2017-07-02T04:41:18.014Z,99.90
2017-07-02T04:43:45.589Z,99.90
2017-07-02T04:46:13.183Z,99.90
2017-07-02T04:48:40.748Z,99.90
2017-07-02T04:51:08.314Z,99.40
2017-07-02T04:53:36.023Z,98.20
2017-07-02T04:56:03.601Z,98.60
2017-07-02T04:58:31.191Z,97.50
2017-07-02T05:00:58.812Z,97.20
2017-07-02T05:03:26.395Z,96.50
2017-07-02T05:05:53.949Z,96.50
2017-07-02T05:08:21.510Z,96.10
2017-07-02T05:10:49.087Z,95.90
2017-07-02T05:13:16.651Z,95.90
2017-07-02T05:15:44.362Z,96.20
2017-07-02T05:18:11.925Z,94.80
2017-07-02T05:20:39.506Z,94.90
2017-07-02T05:23:07.099Z,94.40
2017-07-02T05:25:34.669Z,94.80
2017-07-02T05:28:02.243Z,94.00
2017-07-02T05:30:29.852Z,94.40
2017-07-02T05:32:57.429Z,93.90
2017-07-02T05:35:25.186Z,94.20
2017-07-02T05:37:52.750Z,93.50
2017-07-02T05:40:20.334Z,93.90
2017-07-02T05:42:47.887Z,93.90
2017-07-02T05:45:15.463Z,93.40
2017-07-02T05:47:43.587Z,93.50
2017-07-02T05:50:11.153Z,93.60
2017-07-02T05:52:38.776Z,93.30
2017-07-02T05:55:06.479Z,93.20
2017-07-02T05:57:34.071Z,93.20
2017-07-02T06:00:01.659Z,92.80
2017-07-02T06:02:29.313Z,92.00
2017-07-02T06:04:56.948Z,91.90
2017-07-02T06:07:24.747Z,92.10
2017-07-02T06:09:52.322Z,92.30
2017-07-02T06:12:19.881Z,92.50
2017-07-02T06:14:47.559Z,91.40
2017-07-02T06:17:16.069Z,91.60
2017-07-02T06:19:43.675Z,91.60
2017-07-02T06:22:11.219Z,91.10
2017-07-02T06:24:38.826Z,91.50
2017-07-02T06:27:07.207Z,91.30
2017-07-02T06:29:34.821Z,90.90
2017-07-02T06:32:02.379Z,90.40
2017-07-02T06:34:29.958Z,91.10
2017-07-02T06:36:57.722Z,91.60
2017-07-02T06:39:25.368Z,90.60
2017-07-02T06:41:53.043Z,90.70
2017-07-02T06:44:20.631Z,90.70
2017-07-02T06:46:48.225Z,90.70
2017-07-02T06:49:17.122Z,91.10
2017-07-02T06:51:44.718Z,91.10
2017-07-02T06:54:12.286Z,89.50
2017-07-02T06:56:39.863Z,87.70
2017-07-02T06:59:07.475Z,86.10
2017-07-02T07:01:35.794Z,84.60
2017-07-02T07:04:03.357Z,84.60
2017-07-02T07:06:30.926Z,82.50
2017-07-02T07:08:58.490Z,82.80
2017-07-02T07:11:26.053Z,84.00
2017-07-02T07:13:53.670Z,84.10
2017-07-02T07:16:21.254Z,86.20
2017-07-02T07:18:48.959Z,87.50
2017-07-02T07:21:16.843Z,87.10
2017-07-02T07:23:45.313Z,84.50
2017-07-02T07:26:12.926Z,84.50
2017-07-02T07:28:40.665Z,84.70
2017-07-02T07:31:08.369Z,83.10
2017-07-02T07:33:35.939Z,82.70
2017-07-02T07:36:03.582Z,86.00
2017-07-02T07:38:31.401Z,85.60
2017-07-02T07:40:59.010Z,83.60
2017-07-02T07:43:26.651Z,82.50
2017-07-02T07:45:55.002Z,82.70
2017-07-02T07:48:22.574Z,82.70
2017-07-02T07:50:50.926Z,80.20
2017-07-02T07:53:18.486Z,80.10
2017-07-02T07:55:46.134Z,78.70
2017-07-02T07:58:13.720Z,77.00
2017-07-02T08:00:41.345Z,76.50
2017-07-02T08:03:08.944Z,74.30
2017-07-02T08:05:36.520Z,72.80
2017-07-02T08:08:04.075Z,74.30
2017-07-02T08:10:31.658Z,75.60
2017-07-02T08:13:00.366Z,76.30
2017-07-02T08:15:27.935Z,76.20
2017-07-02T08:17:55.503Z,74.90
2017-07-02T08:20:23.109Z,76.10
2017-07-02T08:22:50.749Z,75.50
2017-07-02T08:25:18.500Z,77.20
2017-07-02T08:27:46.099Z,81.40
2017-07-02T08:30:14.324Z,83.70
2017-07-02T08:32:41.940Z,86.00
2017-07-02T08:35:09.529Z,88.70
2017-07-02T08:37:37.883Z,87.20
2017-07-02T08:40:05.515Z,87.20
2017-07-02T08:42:33.079Z,85.30
2017-07-02T08:45:00.669Z,86.00
2017-07-02T08:47:28.243Z,82.90
2017-07-02T08:49:55.834Z,82.90
2017-07-02T08:52:24.829Z,81.50
2017-07-02T08:54:52.406Z,81.50
2017-07-02T08:57:19.995Z,78.70
2017-07-02T08:59:47.567Z,77.60
2017-07-02T09:02:15.316Z,77.90
2017-07-02T09:04:42.895Z,77.80
2017-07-02T09:07:10.633Z,77.10
2017-07-02T09:09:38.202Z,78.30
2017-07-02T09:12:05.803Z,78.60
2017-07-02T09:14:33.382Z,79.10
2017-07-02T09:17:01.939Z,79.50
2017-07-02T09:19:29.530Z,79.40
2017-07-02T09:21:58.068Z,82.20
2017-07-02T09:24:25.680Z,82.20
2017-07-02T09:26:54.004Z,80.60
2017-07-02T09:29:21.681Z,80.70
2017-07-02T09:31:49.271Z,80.00
2017-07-02T09:34:16.841Z,78.70
2017-07-02T09:36:45.178Z,76.90
2017-07-02T09:39:12.918Z,76.10
2017-07-02T09:41:40.506Z,74.20
2017-07-02T09:44:08.134Z,73.70
2017-07-02T09:46:35.697Z,71.40
2017-07-02T09:49:03.396Z,71.30
2017-07-02T09:51:30.974Z,72.40
2017-07-02T09:53:58.568Z,73.40
2017-07-02T09:56:26.976Z,75.30
2017-07-02T09:58:54.608Z,75.40
2017-07-02T10:01:22.271Z,75.30
2017-07-02T10:03:49.917Z,75.10
2017-07-02T10:06:17.586Z,74.10
2017-07-02T10:08:45.163Z,75.30
2017-07-02T10:11:12.841Z,74.40
2017-07-02T10:13:41.295Z,76.10
2017-07-02T10:16:08.880Z,76.20
2017-07-02T10:18:37.215Z,74.00
2017-07-02T10:21:04.804Z,73.90
2017-07-02T10:23:32.385Z,73.80
2017-07-02T10:26:00.800Z,73.70
2017-07-02T10:28:28.367Z,73.70
2017-07-02T10:30:56.027Z,70.20
2017-07-02T10:33:23.675Z,70.90
2017-07-02T10:35:51.355Z,70.50
2017-07-02T10:38:19.077Z,69.80
2017-07-02T10:40:46.642Z,70.10
2017-07-02T10:43:15.010Z,69.80
2017-07-02T10:45:42.582Z,69.80
2017-07-02T10:48:10.930Z,70.30
2017-07-02T10:50:38.530Z,70.30
2017-07-02T10:53:06.860Z,70.10
2017-07-02T10:55:34.423Z,70.10
2017-07-02T10:58:01.991Z,68.60
2017-07-02T11:00:30.449Z,70.10
2017-07-02T11:02:58.056Z,69.80
2017-07-02T11:05:25.817Z,70.70
2017-07-02T11:07:53.409Z,70.40
2017-07-02T11:10:21.836Z,72.20
2017-07-02T11:12:49.423Z,71.50
2017-07-02T11:15:17.017Z,72.50
2017-07-02T11:17:45.382Z,73.30
2017-07-02T11:20:12.955Z,73.20
2017-07-02T11:22:41.406Z,73.10
2017-07-02T11:25:08.995Z,72.90
2017-07-02T11:27:37.354Z,72.90
2017-07-02T11:30:04.931Z,73.40
2017-07-02T11:32:32.690Z,72.40
2017-07-02T11:35:00.278Z,71.80
2017-07-02T11:37:28.614Z,72.90
2017-07-02T11:39:56.269Z,72.90
2017-07-02T11:42:24.014Z,73.00
2017-07-02T11:44:51.803Z,73.20
2017-07-02T11:47:19.386Z,74.40
2017-07-02T11:49:46.994Z,74.70
2017-07-02T11:52:15.331Z,74.40
2017-07-02T11:54:42.903Z,74.30
2017-07-02T11:57:10.469Z,74.30
2017-07-02T11:59:38.078Z,71.50
2017-07-02T12:02:05.679Z,70.80
2017-07-02T12:04:33.308Z,69.70
2017-07-02T12:07:00.879Z,70.70
2017-07-02T12:09:28.464Z,70.40
2017-07-02T12:11:56.026Z,71.30
2017-07-02T12:14:23.631Z,71.30
2017-07-02T12:16:51.979Z,71.50
2017-07-02T12:19:19.570Z,71.50
2017-07-02T12:21:47.928Z,74.00
2017-07-02T12:24:15.501Z,73.90
2017-07-02T12:26:43.846Z,74.90
2017-07-02T12:29:11.784Z,74.60
2017-07-02T12:31:39.343Z,74.40
2017-07-02T12:34:06.924Z,75.30
2017-07-02T12:36:34.481Z,75.70
2017-07-02T12:39:02.043Z,74.60
2017-07-02T12:41:29.703Z,73.90
2017-07-02T12:43:57.401Z,73.50
2017-07-02T12:46:25.033Z,73.10
2017-07-02T12:48:52.602Z,73.10
2017-07-02T12:51:20.189Z,73.00
2017-07-02T12:53:47.782Z,72.30
2017-07-02T12:56:16.152Z,73.30
2017-07-02T12:58:43.741Z,73.20
2017-07-02T13:01:11.332Z,74.80
2017-07-02T13:03:38.895Z,74.70
2017-07-02T13:06:06.551Z,75.60
2017-07-02T13:08:34.152Z,76.00
2017-07-02T13:11:01.781Z,77.80
2017-07-02T13:13:29.428Z,77.80
2017-07-02T13:15:57.026Z,76.00
2017-07-02T13:18:24.622Z,75.70
2017-07-02T13:20:52.948Z,76.90
2017-07-02T13:23:20.563Z,76.70
2017-07-02T13:25:48.137Z,76.10
2017-07-02T13:28:16.489Z,77.00
2017-07-02T13:30:44.220Z,77.00
2017-07-02T13:33:11.884Z,76.70
2017-07-02T13:35:39.457Z,77.60
2017-07-02T13:38:07.095Z,78.60
2017-07-02T13:40:34.684Z,78.70
2017-07-02T13:43:02.262Z,78.60
2017-07-02T13:45:29.830Z,79.50
2017-07-02T13:47:57.406Z,79.70
2017-07-02T13:50:24.991Z,81.30
2017-07-02T13:52:53.407Z,83.30
2017-07-02T13:55:21.010Z,83.30
2017-07-02T13:57:48.582Z,82.90
2017-07-02T14:00:16.962Z,89.30
2017-07-02T14:02:45.305Z,90.30
2017-07-02T14:05:12.898Z,90.30
2017-07-02T14:07:40.514Z,90.90
2017-07-02T14:10:08.082Z,91.10
2017-07-02T14:12:35.735Z,90.50
2017-07-02T14:15:03.304Z,90.90
2017-07-02T14:17:30.944Z,90.20
2017-07-02T14:19:58.509Z,89.60
2017-07-02T14:22:26.085Z,89.30
2017-07-02T14:24:53.680Z,90.20
2017-07-02T14:27:21.243Z,88.60
2017-07-02T14:29:48.841Z,85.70
2017-07-02T14:32:16.493Z,85.00
2017-07-02T14:34:44.067Z,86.00
2017-07-02T14:37:12.523Z,77.90
2017-07-02T14:39:40.099Z,77.90
2017-07-02T14:42:08.455Z,77.50
2017-07-02T14:44:36.078Z,77.30
2017-07-02T14:47:03.650Z,76.20
2017-07-02T14:49:31.231Z,78.10
2017-07-02T14:51:58.867Z,78.80
2017-07-02T14:54:26.436Z,78.50
2017-07-02T14:56:54.067Z,79.00
2017-07-02T14:59:22.425Z,77.20
2017-07-02T15:01:50.001Z,76.80
2017-07-02T15:04:18.335Z,73.60
2017-07-02T15:06:46.011Z,73.50
2017-07-02T15:09:13.575Z,72.30
2017-07-02T15:11:41.181Z,72.80
2017-07-02T15:14:09.506Z,73.30
2017-07-02T15:16:37.083Z,74.00
2017-07-02T15:19:04.692Z,72.70
2017-07-02T15:21:32.254Z,71.90
2017-07-02T15:24:00.611Z,68.70
2017-07-02T15:26:28.204Z,68.60
2017-07-02T15:28:55.825Z,66.40
2017-07-02T15:31:23.412Z,68.70
2017-07-02T15:33:51.991Z,66.40
2017-07-02T15:36:19.595Z,66.50
2017-07-02T15:38:47.460Z,68.10
2017-07-02T15:41:15.058Z,70.60
2017-07-02T15:43:42.753Z,69.40
2017-07-02T15:46:11.112Z,70.40
2017-07-02T15:48:38.728Z,70.10
2017-07-02T15:51:06.348Z,69.70
2017-07-02T15:53:34.022Z,69.50
2017-07-02T15:56:01.617Z,69.60
2017-07-02T15:58:29.206Z,70.60
2017-07-02T16:00:56.811Z,70.50
2017-07-02T16:03:24.435Z,69.20
2017-07-02T16:05:52.032Z,68.20
2017-07-02T16:08:19.667Z,66.50
2017-07-02T16:10:47.276Z,67.40
2017-07-02T16:13:15.636Z,67.30
2017-07-02T16:15:43.229Z,67.30
2017-07-02T16:18:10.781Z,67.80
2017-07-02T16:20:38.358Z,70.50
2017-07-02T16:23:05.941Z,69.50
2017-07-02T16:25:34.297Z,71.40
2017-07-02T16:28:01.860Z,71.40
2017-07-02T16:30:29.481Z,72.30
2017-07-02T16:32:57.070Z,71.30
2017-07-02T16:35:24.676Z,71.70
2017-07-02T16:37:53.149Z,71.40
2017-07-02T16:40:21.505Z,71.00
2017-07-02T16:42:49.114Z,70.90
2017-07-02T16:45:16.709Z,72.60
2017-07-02T16:47:44.301Z,72.60
2017-07-02T16:50:11.887Z,73.00
2017-07-02T16:52:39.478Z,73.40
2017-07-02T16:55:07.093Z,74.60
2017-07-02T16:57:34.909Z,75.60
2017-07-02T17:00:02.498Z,76.00
2017-07-02T17:02:30.076Z,76.20
2017-07-02T17:04:57.646Z,76.90
2017-07-02T17:07:26.144Z,77.10
2017-07-02T17:09:54.489Z,78.20
2017-07-02T17:12:22.129Z,78.20
2017-07-02T17:14:49.885Z,77.30
2017-07-02T17:17:17.460Z,76.10
2017-07-02T17:19:45.158Z,76.00
2017-07-02T17:22:12.747Z,76.40
2017-07-02T17:24:40.343Z,75.40
2017-07-02T17:27:07.922Z,74.70
2017-07-02T17:29:35.720Z,74.00
2017-07-02T17:32:03.331Z,74.20
2017-07-02T17:34:30.920Z,74.60
2017-07-02T17:36:58.658Z,74.80
2017-07-02T17:39:26.229Z,73.80
2017-07-02T17:41:53.829Z,73.20
2017-07-02T17:44:21.525Z,73.60
2017-07-02T17:46:49.133Z,67.60
2017-07-02T17:49:17.499Z,63.70
2017-07-02T17:51:45.861Z,63.50
2017-07-02T17:54:13.436Z,63.40
2017-07-02T17:56:41.038Z,64.30
2017-07-02T17:59:08.634Z,64.30
2017-07-02T18:01:36.216Z,65.60
2017-07-02T18:04:03.806Z,68.00
2017-07-02T18:06:32.179Z,68.00
2017-07-02T18:08:59.859Z,68.10
2017-07-02T18:11:27.470Z,65.10
2017-07-02T18:13:55.063Z,65.60
2017-07-02T18:16:22.669Z,64.40
2017-07-02T18:18:50.284Z,65.00
2017-07-02T18:21:17.868Z,65.10
2017-07-02T18:23:45.445Z,65.30
2017-07-02T18:26:13.158Z,66.10
2017-07-02T18:28:40.732Z,65.50
2017-07-02T18:31:08.298Z,65.60
2017-07-02T18:33:35.878Z,65.60
2017-07-02T18:36:04.234Z,67.20
2017-07-02T18:38:31.851Z,67.90
2017-07-02T18:40:59.449Z,66.30
2017-07-02T18:43:27.029Z,68.00
2017-07-02T18:45:54.670Z,67.00
2017-07-02T18:48:22.302Z,67.20
2017-07-02T18:50:49.877Z,67.40
2017-07-02T18:53:17.477Z,68.70
2017-07-02T18:55:45.073Z,68.10
2017-07-02T18:58:12.666Z,70.00
2017-07-02T19:00:40.307Z,70.10
2017-07-02T19:03:07.915Z,69.50
2017-07-02T19:05:35.645Z,69.40
2017-07-02T19:08:03.200Z,69.80
2017-07-02T19:10:30.839Z,68.80
2017-07-02T19:12:59.273Z,69.10
2017-07-02T19:15:26.847Z,69.00
2017-07-02T19:17:54.446Z,69.40
2017-07-02T19:20:22.028Z,71.00
2017-07-02T19:22:49.638Z,71.70
2017-07-02T19:25:17.382Z,72.10
2017-07-02T19:27:45.139Z,72.60
2017-07-02T19:30:12.799Z,72.20
2017-07-02T19:32:40.488Z,73.30
2017-07-02T19:35:08.115Z,73.60
2017-07-02T19:37:35.791Z,73.30
2017-07-02T19:40:03.394Z,73.20
2017-07-02T19:42:30.988Z,73.20
2017-07-02T19:44:58.607Z,74.20
2017-07-02T19:47:26.187Z,74.40
2017-07-02T19:49:53.804Z,74.70
2017-07-02T19:52:21.388Z,76.30
2017-07-02T19:54:48.976Z,75.10
2017-07-02T19:57:16.648Z,77.10
2017-07-02T19:59:45.731Z,76.00
2017-07-02T20:02:13.291Z,76.00
2017-07-02T20:04:40.878Z,75.20
2017-07-02T20:07:08.471Z,73.90
2017-07-02T20:09:36.060Z,74.20
2017-07-02T20:12:03.916Z,75.20
2017-07-02T20:14:31.606Z,75.30
2017-07-02T20:16:59.178Z,74.80
2017-07-02T20:19:26.836Z,76.60
2017-07-02T20:21:54.425Z,77.40
2017-07-02T20:24:22.872Z,77.60
2017-07-02T20:26:50.458Z,77.60
2017-07-02T20:29:18.789Z,78.40
2017-07-02T20:31:46.354Z,78.50
2017-07-02T20:34:28.541Z,79.50
2017-07-02T20:36:56.191Z,79.40
2017-07-02T20:39:24.551Z,80.60
2017-07-02T20:41:52.251Z,80.60
2017-07-02T20:44:19.879Z,81.00
2017-07-02T20:46:47.484Z,81.40
2017-07-02T20:49:15.056Z,82.60
2017-07-02T20:51:43.748Z,83.00
2017-07-02T20:54:11.405Z,85.00
2017-07-02T20:56:39.448Z,85.70
2017-07-02T20:59:07.015Z,86.70
2017-07-02T21:01:35.422Z,88.30
2017-07-02T21:04:03.013Z,88.30
2017-07-02T21:06:30.574Z,87.50
2017-07-02T21:08:58.373Z,87.90
2017-07-02T21:11:26.846Z,88.30
2017-07-02T21:13:55.237Z,89.00
2017-07-02T21:16:23.614Z,88.00
2017-07-02T21:18:52.012Z,88.70
2017-07-02T21:21:19.772Z,89.10
2017-07-02T21:23:48.307Z,89.20
2017-07-02T21:26:15.890Z,89.30
2017-07-02T21:28:43.635Z,90.10
2017-07-02T21:31:11.227Z,90.00
2017-07-02T21:33:39.007Z,90.40
2017-07-02T21:36:07.378Z,90.50
2017-07-02T21:38:36.012Z,90.80
2017-07-02T21:41:03.895Z,90.90
2017-07-02T21:43:31.485Z,91.40
2017-07-02T21:45:59.079Z,91.60
2017-07-02T21:48:26.701Z,91.60
2017-07-02T21:50:54.288Z,92.40
2017-07-02T21:53:22.668Z,92.30
2017-07-02T21:55:51.015Z,92.50
2017-07-02T21:58:18.765Z,92.50
2017-07-02T22:00:46.426Z,92.50
2017-07-02T22:03:14.367Z,92.90
2017-07-02T22:05:42.025Z,92.90
2017-07-02T22:08:09.705Z,93.10
2017-07-02T22:10:37.305Z,92.80
2017-07-02T22:13:05.504Z,92.80
2017-07-02T22:15:33.103Z,92.70
2017-07-02T22:18:00.687Z,92.80
2017-07-02T22:20:28.395Z,92.50
2017-07-02T22:22:55.977Z,92.50
2017-07-02T22:25:23.547Z,92.70
2017-07-02T22:27:51.195Z,92.60
2017-07-02T22:30:19.678Z,92.40
2017-07-02T22:32:47.996Z,92.40
2017-07-02T22:35:15.576Z,92.30
2017-07-02T22:37:43.302Z,92.60
2017-07-02T22:40:10.936Z,92.70
2017-07-02T22:42:39.322Z,93.10
2017-07-02T22:45:08.259Z,93.50
2017-07-02T22:47:35.886Z,93.50
2017-07-02T22:50:04.224Z,93.40
2017-07-02T22:52:31.841Z,93.40
2017-07-02T22:54:59.629Z,93.70
2017-07-02T22:57:27.202Z,93.80
2017-07-02T22:59:54.775Z,93.70
2017-07-02T23:02:22.373Z,93.60
2017-07-02T23:04:50.820Z,93.90
2017-07-02T23:07:18.374Z,93.90
2017-07-02T23:09:45.963Z,94.10
2017-07-02T23:12:13.567Z,94.20
2017-07-02T23:14:41.145Z,94.20
2017-07-02T23:17:08.724Z,94.50
2017-07-02T23:19:36.316Z,94.50
2017-07-02T23:22:04.651Z,94.50
2017-07-02T23:24:32.221Z,94.70
2017-07-02T23:26:59.975Z,94.80
2017-07-02T23:29:27.544Z,95.10
2017-07-02T23:31:55.128Z,94.90
2017-07-02T23:34:22.701Z,95.00
2017-07-02T23:36:50.290Z,95.30
2017-07-02T23:39:17.874Z,95.60
2017-07-02T23:41:45.435Z,95.40
2017-07-02T23:44:13.136Z,96.00
2017-07-02T23:46:40.702Z,96.10
2017-07-02T23:49:08.298Z,96.10
2017-07-02T23:51:35.882Z,96.40
2017-07-02T23:54:03.440Z,96.60
2017-07-02T23:56:31.006Z,96.60
2017-07-02T23:58:58.586Z,97.90
